Time,TemperatureF,DewpointF,PressureIn,WindDirection,WindDirectionDegrees,WindSpeedMPH,WindSpeedGustMPH,Humidity,HourlyPrecipIn,Conditions,Clouds,dailyrainin,SoftwareType,DateUTC
2013-08-16 00:03:00,-999.0,-99.9,30.04,SSW,209,6.0,7.0,-999,-99.99,,,-99.99,,2013-08-16 04:03:00,
2013-08-16 00:13:00,-999.0,-99.9,30.04,SW,215,4.0,7.0,-999,-99.99,,,-99.99,,2013-08-16 04:13:00,
2013-08-16 00:23:00,-999.0,-99.9,30.04,SSW,211,4.0,6.0,-999,-99.99,,,-99.99,,2013-08-16 04:23:00,
2013-08-16 00:33:00,-999.0,-99.9,30.04,SW,215,5.0,7.0,-999,-99.99,,,-99.99,,2013-08-16 04:33:00,
2013-08-16 00:43:00,-999.0,-99.9,30.04,SW,230,5.0,7.0,-999,-99.99,,,-99.99,,2013-08-16 04:43:00,
2013-08-16 00:54:00,-999.0,-99.9,30.04,SW,234,4.0,6.0,-999,-99.99,,,-99.99,,2013-08-16 04:54:00,
2013-08-16 01:02:00,-999.0,-99.9,30.03,SW,227,4.0,6.0,-999,-99.99,,,-99.99,,2013-08-16 05:02:00,
2013-08-16 01:12:00,-999.0,-99.9,30.03,SW,233,4.0,5.0,-999,-99.99,,,-99.99,,2013-08-16 05:12:00,
2013-08-16 01:22:00,-999.0,-99.9,30.03,West,259,3.0,4.0,-999,-99.99,,,-99.99,,2013-08-16 05:22:00,
2013-08-16 01:32:00,-999.0,-99.9,30.02,WNW,283,3.0,5.0,-999,-99.99,,,-99.99,,2013-08-16 05:32:00,
2013-08-16 01:45:00,-999.0,-99.9,30.03,NW,321,5.0,6.0,-999,-99.99,,,-99.99,,2013-08-16 05:45:00,
2013-08-16 03:00:00,-999.0,-99.9,30.00,NNE,25,14.0,15.0,-999,-99.99,,,-99.99,,2013-08-16 07:00:00,
2013-08-16 03:31:00,-999.0,-99.9,29.99,NE,35,6.0,9.0,-999,-99.99,,,-99.99,,2013-08-16 07:31:00,
2013-08-16 03:42:00,-999.0,-99.9,29.99,NE,48,6.0,8.0,-999,-99.99,,,-99.99,,2013-08-16 07:42:00,
2013-08-16 03:52:00,-999.0,-99.9,29.99,NE,36,4.0,6.0,-999,-99.99,,,-99.99,,2013-08-16 07:52:00,
2013-08-16 04:52:00,-999.0,-99.9,29.98,North,9,2.0,3.0,-999,-99.99,,,-99.99,,2013-08-16 08:52:00,
2013-08-16 05:01:00,-999.0,-99.9,29.98,NNE,33,4.0,4.0,-999,-99.99,,,-99.99,,2013-08-16 09:01:00,
2013-08-16 05:53:00,-999.0,-99.9,29.99,NE,55,4.0,6.0,-999,-99.99,,,-99.99,,2013-08-16 09:53:00,
2013-08-16 06:23:00,-999.0,-99.9,29.99,ENE,65,5.0,6.0,-999,-99.99,,,-99.99,,2013-08-16 10:23:00,
2013-08-16 06:42:00,-999.0,-99.9,30.00,East,88,3.0,4.0,-999,-99.99,,,-99.99,,2013-08-16 10:42:00,
2013-08-16 07:02:00,-999.0,-99.9,30.01,ESE,107,5.0,6.0,-999,-99.99,,,-99.99,,2013-08-16 11:02:00,
2013-08-16 08:02:00,-999.0,-99.9,30.02,ESE,117,6.0,7.0,-999,-99.99,,,-99.99,,2013-08-16 12:02:00,
2013-08-16 08:12:00,-999.0,-99.9,30.03,ESE,109,5.0,7.0,-999,-99.99,,,-99.99,,2013-08-16 12:12:00,
2013-08-16 08:22:00,-999.0,-99.9,30.03,ESE,113,6.0,7.0,-999,-99.99,,,-99.99,,2013-08-16 12:22:00,
2013-08-16 08:32:00,-999.0,-99.9,30.03,ESE,103,7.0,8.0,-999,-99.99,,,-99.99,,2013-08-16 12:32:00,
2013-08-16 09:02:00,-999.0,-99.9,30.03,ESE,115,6.0,7.0,-999,-99.99,,,-99.99,,2013-08-16 13:02:00,
2013-08-16 09:53:00,-999.0,-99.9,30.03,East,95,7.0,8.0,-999,-99.99,,,-99.99,,2013-08-16 13:53:00,
2013-08-16 10:11:00,-999.0,-99.9,30.03,East,97,8.0,9.0,-999,-99.99,,,-99.99,,2013-08-16 14:11:00,
2013-08-16 10:22:00,-999.0,-99.9,30.03,East,95,9.0,10.0,-999,-99.99,,,-99.99,,2013-08-16 14:22:00,
2013-08-16 10:32:00,-999.0,-99.9,30.04,East,99,7.0,9.0,-999,-99.99,,,-99.99,,2013-08-16 14:32:00,
2013-08-16 10:42:00,-999.0,-99.9,30.04,ESE,105,9.0,11.0,-999,-99.99,,,-99.99,,2013-08-16 14:42:00,
2013-08-16 10:52:00,-999.0,-99.9,30.04,East,98,9.0,10.0,-999,-99.99,,,-99.99,,2013-08-16 14:52:00,
2013-08-16 11:01:00,-999.0,-99.9,30.04,East,98,9.0,9.0,-999,-99.99,,,-99.99,,2013-08-16 15:01:00,
2013-08-16 11:12:00,-999.0,-99.9,30.04,ESE,110,7.0,10.0,-999,-99.99,,,-99.99,,2013-08-16 15:12:00,
2013-08-16 11:22:00,-999.0,-99.9,30.04,SE,135,6.0,9.0,-999,-99.99,,,-99.99,,2013-08-16 15:22:00,
2013-08-16 11:33:00,-999.0,-99.9,30.04,SSE,157,8.0,9.0,-999,-99.99,,,-99.99,,2013-08-16 15:33:00,
2013-08-16 11:43:00,-999.0,-99.9,30.04,SE,129,6.0,7.0,-999,-99.99,,,-99.99,,2013-08-16 15:43:00,
2013-08-16 11:56:00,-999.0,-99.9,30.04,ESE,110,8.0,10.0,-999,-99.99,,,-99.99,,2013-08-16 15:56:00,
2013-08-16 12:05:00,-999.0,-99.9,30.04,ESE,123,9.0,10.0,-999,-99.99,,,-99.99,,2013-08-16 16:05:00,
2013-08-16 12:13:00,-999.0,-99.9,30.04,ESE,117,9.0,10.0,-999,-99.99,,,-99.99,,2013-08-16 16:13:00,
2013-08-16 12:23:00,-999.0,-99.9,30.04,ESE,110,9.0,10.0,-999,-99.99,,,-99.99,,2013-08-16 16:23:00,
2013-08-16 12:34:00,-999.0,-99.9,30.03,ESE,108,10.0,11.0,-999,-99.99,,,-99.99,,2013-08-16 16:34:00,
2013-08-16 12:44:00,-999.0,-99.9,30.03,ESE,110,8.0,9.0,-999,-99.99,,,-99.99,,2013-08-16 16:44:00,
2013-08-16 12:57:00,-999.0,-99.9,30.03,ESE,111,8.0,10.0,-999,-99.99,,,-99.99,,2013-08-16 16:57:00,
2013-08-16 13:03:00,-999.0,-99.9,30.03,ESE,116,9.0,10.0,-999,-99.99,,,-99.99,,2013-08-16 17:03:00,
2013-08-16 13:13:00,-999.0,-99.9,30.03,SE,125,9.0,11.0,-999,-99.99,,,-99.99,,2013-08-16 17:13:00,
2013-08-16 13:28:00,-999.0,-99.9,30.02,SE,130,10.0,11.0,-999,-99.99,,,-99.99,,2013-08-16 17:28:00,
2013-08-16 13:34:00,-999.0,-99.9,30.02,ESE,120,9.0,11.0,-999,-99.99,,,-99.99,,2013-08-16 17:34:00,
2013-08-16 13:47:00,-999.0,-99.9,30.02,ESE,119,9.0,10.0,-999,-99.99,,,-99.99,,2013-08-16 17:47:00,
2013-08-16 14:00:00,-999.0,-99.9,30.02,ESE,121,10.0,11.0,-999,-99.99,,,-99.99,,2013-08-16 18:00:00,
2013-08-16 14:06:00,-999.0,-99.9,30.02,SE,124,9.0,11.0,-999,-99.99,,,-99.99,,2013-08-16 18:06:00,
2013-08-16 14:15:00,-999.0,-99.9,30.02,ESE,112,8.0,9.0,-999,-99.99,,,-99.99,,2013-08-16 18:15:00,
2013-08-16 14:28:00,-999.0,-99.9,30.02,ESE,115,9.0,10.0,-999,-99.99,,,-99.99,,2013-08-16 18:28:00,
2013-08-16 14:50:00,-999.0,-99.9,30.01,SE,135,9.0,11.0,-999,-99.99,,,-99.99,,2013-08-16 18:50:00,
2013-08-16 15:03:00,-999.0,-99.9,30.00,SE,127,10.0,11.0,-999,-99.99,,,-99.99,,2013-08-16 19:03:00,
2013-08-16 15:14:00,-999.0,-99.9,29.99,ESE,119,10.0,11.0,-999,-99.99,,,-99.99,,2013-08-16 19:14:00,
2013-08-16 15:25:00,-999.0,-99.9,29.99,ESE,122,10.0,11.0,-999,-99.99,,,-99.99,,2013-08-16 19:25:00,
2013-08-16 15:36:00,-999.0,-99.9,29.99,SE,129,10.0,11.0,-999,-99.99,,,-99.99,,2013-08-16 19:36:00,
2013-08-16 15:47:00,-999.0,-99.9,29.99,SE,130,10.0,12.0,-999,-99.99,,,-99.99,,2013-08-16 19:47:00,
2013-08-16 15:55:00,-999.0,-99.9,29.98,ESE,122,10.0,12.0,-999,-99.99,,,-99.99,,2013-08-16 19:55:00,
2013-08-16 16:02:00,-999.0,-99.9,29.98,SE,127,10.0,11.0,-999,-99.99,,,-99.99,,2013-08-16 20:02:00,
2013-08-16 16:11:00,-999.0,-99.9,29.98,SE,131,9.0,11.0,-999,-99.99,,,-99.99,,2013-08-16 20:11:00,
2013-08-16 16:23:00,-999.0,-99.9,29.98,SE,137,10.0,11.0,-999,-99.99,,,-99.99,,2013-08-16 20:23:00,
2013-08-16 16:38:00,-999.0,-99.9,29.97,SE,125,10.0,12.0,-999,-99.99,,,-99.99,,2013-08-16 20:38:00,
2013-08-16 16:44:00,-999.0,-99.9,29.97,ESE,120,11.0,12.0,-999,-99.99,,,-99.99,,2013-08-16 20:44:00,
2013-08-16 16:52:00,-999.0,-99.9,29.98,ESE,122,11.0,14.0,-999,-99.99,,,-99.99,,2013-08-16 20:52:00,
2013-08-16 17:01:00,-999.0,-99.9,29.98,ESE,121,11.0,12.0,-999,-99.99,,,-99.99,,2013-08-16 21:01:00,
2013-08-16 17:11:00,-999.0,-99.9,29.98,ESE,122,11.0,13.0,-999,-99.99,,,-99.99,,2013-08-16 21:11:00,
2013-08-16 17:25:00,-999.0,-99.9,29.98,ESE,121,12.0,13.0,-999,-99.99,,,-99.99,,2013-08-16 21:25:00,
2013-08-16 17:40:00,-999.0,-99.9,29.98,ESE,119,12.0,14.0,-999,-99.99,,,-99.99,,2013-08-16 21:40:00,
2013-08-16 17:54:00,-999.0,-99.9,29.98,SE,134,11.0,13.0,-999,-99.99,,,-99.99,,2013-08-16 21:54:00,
2013-08-16 18:07:00,-999.0,-99.9,29.98,SE,127,12.0,13.0,-999,-99.99,,,-99.99,,2013-08-16 22:07:00,
2013-08-16 18:13:00,-999.0,-99.9,29.98,SE,124,13.0,15.0,-999,-99.99,,,-99.99,,2013-08-16 22:13:00,
2013-08-16 18:24:00,-999.0,-99.9,29.98,ESE,122,13.0,14.0,-999,-99.99,,,-99.99,,2013-08-16 22:24:00,
2013-08-16 18:34:00,-999.0,-99.9,29.98,ESE,119,11.0,14.0,-999,-99.99,,,-99.99,,2013-08-16 22:34:00,
2013-08-16 18:43:00,-999.0,-99.9,29.98,SE,133,12.0,13.0,-999,-99.99,,,-99.99,,2013-08-16 22:43:00,
2013-08-16 18:53:00,-999.0,-99.9,29.98,SE,128,9.0,12.0,-999,-99.99,,,-99.99,,2013-08-16 22:53:00,
2013-08-16 19:09:00,-999.0,-99.9,29.98,SE,124,12.0,13.0,-999,-99.99,,,-99.99,,2013-08-16 23:09:00,
2013-08-16 19:23:00,-999.0,-99.9,29.98,SE,130,11.0,13.0,-999,-99.99,,,-99.99,,2013-08-16 23:23:00,
2013-08-16 19:33:00,-999.0,-99.9,29.98,SE,130,12.0,13.0,-999,-99.99,,,-99.99,,2013-08-16 23:33:00,
2013-08-16 19:42:00,-999.0,-99.9,29.98,SE,131,11.0,12.0,-999,-99.99,,,-99.99,,2013-08-16 23:42:00,
2013-08-16 19:52:00,-999.0,-99.9,29.98,SE,133,11.0,12.0,-999,-99.99,,,-99.99,,2013-08-16 23:52:00,
2013-08-16 20:02:00,-999.0,-99.9,29.99,SE,141,12.0,13.0,-999,-99.99,,,-99.99,,2013-08-17 00:02:00,
2013-08-16 20:12:00,-999.0,-99.9,30.00,SE,131,12.0,13.0,-999,-99.99,,,-99.99,,2013-08-17 00:12:00,
2013-08-16 20:22:00,-999.0,-99.9,30.00,SE,133,12.0,14.0,-999,-99.99,,,-99.99,,2013-08-17 00:22:00,
2013-08-16 20:33:00,-999.0,-99.9,30.00,SE,129,12.0,13.0,-999,-99.99,,,-99.99,,2013-08-17 00:33:00,
2013-08-16 20:42:00,-999.0,-99.9,30.01,ESE,123,12.0,15.0,-999,-99.99,,,-99.99,,2013-08-17 00:42:00,
2013-08-16 20:52:00,-999.0,-99.9,30.01,SE,136,13.0,15.0,-999,-99.99,,,-99.99,,2013-08-17 00:52:00,
2013-08-16 21:01:00,-999.0,-99.9,30.02,SE,141,12.0,14.0,-999,-99.99,,,-99.99,,2013-08-17 01:01:00,
2013-08-16 21:11:00,-999.0,-99.9,30.02,SE,142,14.0,16.0,-999,-99.99,,,-99.99,,2013-08-17 01:11:00,
2013-08-16 21:21:00,-999.0,-99.9,30.02,SE,134,13.0,15.0,-999,-99.99,,,-99.99,,2013-08-17 01:21:00,
2013-08-16 21:32:00,-999.0,-99.9,30.03,SE,132,13.0,15.0,-999,-99.99,,,-99.99,,2013-08-17 01:32:00,
2013-08-16 21:42:00,-999.0,-99.9,30.03,SE,128,12.0,15.0,-999,-99.99,,,-99.99,,2013-08-17 01:42:00,
2013-08-16 21:52:00,-999.0,-99.9,30.03,SE,131,13.0,15.0,-999,-99.99,,,-99.99,,2013-08-17 01:52:00,
2013-08-16 22:02:00,-999.0,-99.9,30.04,SE,127,14.0,15.0,-999,-99.99,,,-99.99,,2013-08-17 02:02:00,
2013-08-16 22:11:00,-999.0,-99.9,30.04,SE,131,13.0,14.0,-999,-99.99,,,-99.99,,2013-08-17 02:11:00,
2013-08-16 22:21:00,-999.0,-99.9,30.04,SE,131,12.0,15.0,-999,-99.99,,,-99.99,,2013-08-17 02:21:00,
2013-08-16 22:32:00,-999.0,-99.9,30.04,SE,138,13.0,13.0,-999,-99.99,,,-99.99,,2013-08-17 02:32:00,
2013-08-16 22:42:00,-999.0,-99.9,30.04,SE,140,12.0,13.0,-999,-99.99,,,-99.99,,2013-08-17 02:42:00,
2013-08-16 22:52:00,-999.0,-99.9,30.04,SE,141,13.0,13.0,-999,-99.99,,,-99.99,,2013-08-17 02:52:00,
2013-08-16 23:02:00,-999.0,-99.9,30.04,SE,140,11.0,14.0,-999,-99.99,,,-99.99,,2013-08-17 03:02:00,
2013-08-16 23:11:00,-999.0,-99.9,30.04,SE,142,12.0,15.0,-999,-99.99,,,-99.99,,2013-08-17 03:11:00,
2013-08-16 23:22:00,-999.0,-99.9,30.04,SE,133,12.0,13.0,-999,-99.99,,,-99.99,,2013-08-17 03:22:00,
2013-08-16 23:35:00,-999.0,-99.9,30.04,SE,137,12.0,13.0,-999,-99.99,,,-99.99,,2013-08-17 03:35:00,
2013-08-16 23:43:00,-999.0,-99.9,30.04,SE,133,11.0,13.0,-999,-99.99,,,-99.99,,2013-08-17 03:43:00,
2013-08-16 23:53:00,-999.0,-99.9,30.03,SE,143,12.0,13.0,-999,-99.99,,,-99.99,,2013-08-17 03:53:00,